Limaville, Ohio
Current Conditions -  °F | °C
As of 5:51 PM on Monday 24 Nov 2014 (Local Time) from KCAK Reporting Station
Broken Clouds Broken Clouds  
Wind Chill: 40°   Ceiling: 3800
Heat Index: 48°   Visibility: 10mi
Dew Point: 34°   Wind: 25mph
Humidity: 58%   Direction: 250°WSW
Pressure: 29.64"   Gusts: 36mph
Location:  40.98°N, 81.15°W
Report Text: KCAK 242251Z 25022G31KT 10SM BKN038 09/01 A2964 RMK AO2 PK WND 25031/2246 SLP036 T00890011 $
Loading
Personal Weather Stations






























Interactive Weather Map New forecast layout! Learn more

10-Day Weather Forecast

Advertisements
Track Severe Weather on mobile